Terminal Aerodrome Forecast
Issued by NWS

Home | Current Version | Previous Version | Text Only | Print | Product List | Glossary On
Versions: 1 2 3 4 5 6 7 8 9 10 11 12 13 14 15 16 17 18 19 20 21 22
000
FTUS45 KGGW 062300
TAFOLF
TAF
KOLF 062329Z 0700/0724 35018KT P6SM BKN080
     FM070600 34013KT P6SM SCT110
     FM071600 31017KT P6SM SCT200=

USA.gov is the U.S. government's official web portal to all federal, state and local government web resources and services.